Time,TemperatureF,DewpointF,PressureIn,WindDirection,WindDirectionDegrees,WindSpeedMPH,WindSpeedGustMPH,Humidity,HourlyPrecipIn,Conditions,Clouds,dailyrainin,SoftwareType,DateUTC
2013-01-29 00:00:00,56.0,52.2,30.04,SSW,206,6.0,9.0,87,0.00,,,0.00,VWS V14.01,2013-01-29 05:00:00,
2013-01-29 00:01:00,56.0,52.2,30.04,South,185,7.5,9.0,87,0.00,,,0.00,VWS V14.01,2013-01-29 05:01:00,
2013-01-29 00:03:00,56.0,52.2,30.04,SW,214,4.5,9.0,87,0.00,,,0.00,VWS V14.01,2013-01-29 05:03:00,
2013-01-29 00:08:00,56.0,52.2,30.04,West,264,6.0,10.5,87,0.00,,,0.00,VWS V14.01,2013-01-29 05:08:00,
2013-01-29 00:13:00,56.1,52.0,30.04,SW,224,4.5,4.5,86,0.00,,,0.00,VWS V14.01,2013-01-29 05:13:00,
2013-01-29 00:18:00,56.1,52.0,30.04,SSW,198,4.5,12.0,86,0.00,,,0.00,VWS V14.01,2013-01-29 05:18:00,
2013-01-29 00:23:00,56.1,52.0,30.04,SW,217,3.0,6.0,86,0.00,,,0.00,VWS V14.01,2013-01-29 05:23:00,
2013-01-29 00:28:00,56.1,52.0,30.04,SW,230,3.0,10.5,86,0.00,,,0.00,VWS V14.01,2013-01-29 05:28:00,
2013-01-29 00:33:00,56.2,52.1,30.04,WSW,251,6.0,7.5,86,0.00,,,0.00,VWS V14.01,2013-01-29 05:33:00,
2013-01-29 00:38:00,56.2,52.1,30.04,SSW,206,9.0,9.0,86,0.00,,,0.00,VWS V14.01,2013-01-29 05:38:00,
2013-01-29 00:43:00,56.3,52.2,30.04,WSW,245,4.5,7.5,86,0.00,,,0.00,VWS V14.01,2013-01-29 05:43:00,
2013-01-29 00:48:00,56.3,52.2,30.04,SW,236,3.0,7.5,86,0.00,,,0.00,VWS V14.01,2013-01-29 05:48:00,
2013-01-29 00:53:00,56.3,52.2,30.04,SW,226,7.5,7.5,86,0.00,,,0.00,VWS V14.01,2013-01-29 05:53:00,
2013-01-29 00:58:00,56.4,52.0,30.04,SW,231,9.0,15.0,85,0.00,,,0.00,VWS V14.01,2013-01-29 05:58:00,
2013-01-29 01:03:00,56.5,52.1,30.04,SW,220,15.0,15.0,85,0.00,,,0.00,VWS V14.01,2013-01-29 06:03:00,
2013-01-29 01:08:00,56.6,52.2,30.03,SW,221,6.0,9.0,85,0.00,,,0.00,VWS V14.01,2013-01-29 06:08:00,
2013-01-29 01:13:00,56.6,52.2,30.03,WSW,238,9.0,13.5,85,0.00,,,0.00,VWS V14.01,2013-01-29 06:13:00,
2013-01-29 01:18:00,56.6,52.2,30.03,WSW,238,9.0,13.5,85,0.00,,,0.00,VWS V14.01,2013-01-29 06:18:00,
2013-01-29 01:23:00,56.6,52.2,30.03,WSW,245,6.0,9.0,85,0.00,,,0.00,VWS V14.01,2013-01-29 06:23:00,
2013-01-29 01:28:00,56.7,52.3,30.03,WSW,243,9.0,10.5,85,0.00,,,0.00,VWS V14.01,2013-01-29 06:28:00,
2013-01-29 01:33:00,56.6,52.2,30.03,WSW,258,9.0,10.5,85,0.00,,,0.00,VWS V14.01,2013-01-29 06:33:00,
2013-01-29 01:38:00,56.7,52.3,30.03,SW,214,7.5,12.0,85,0.00,,,0.00,VWS V14.01,2013-01-29 06:38:00,
2013-01-29 01:43:00,56.8,52.0,30.03,SW,236,12.0,12.0,84,0.00,,,0.00,VWS V14.01,2013-01-29 06:43:00,
2013-01-29 01:48:00,56.8,52.0,30.03,WSW,248,9.0,13.5,84,0.00,,,0.00,VWS V14.01,2013-01-29 06:48:00,
2013-01-29 01:52:00,56.7,51.9,30.03,SW,223,6.0,7.5,84,0.00,,,0.00,VWS V14.01,2013-01-29 06:52:00,
2013-01-29 01:57:00,56.6,52.2,30.02,SW,232,15.0,21.0,85,0.00,,,0.00,VWS V14.01,2013-01-29 06:57:00,
2013-01-29 02:02:00,56.6,51.8,30.02,SW,225,12.0,16.5,84,0.00,,,0.00,VWS V14.01,2013-01-29 07:02:00,
2013-01-29 02:07:00,56.6,51.8,30.02,WSW,246,4.5,7.5,84,0.00,,,0.00,VWS V14.01,2013-01-29 07:07:00,
2013-01-29 02:12:00,56.5,52.1,30.02,WSW,243,7.5,9.0,85,0.00,,,0.00,VWS V14.01,2013-01-29 07:12:00,
2013-01-29 02:17:00,56.6,51.8,30.02,SW,233,10.5,16.5,84,0.00,,,0.00,VWS V14.01,2013-01-29 07:17:00,
2013-01-29 02:22:00,56.6,51.8,30.02,SSE,166,6.0,9.0,84,0.00,,,0.00,VWS V14.01,2013-01-29 07:22:00,
2013-01-29 02:27:00,56.6,51.8,30.02,SW,228,12.0,12.0,84,0.00,,,0.00,VWS V14.01,2013-01-29 07:27:00,
2013-01-29 02:32:00,56.6,51.8,30.02,SW,231,13.5,13.5,84,0.00,,,0.00,VWS V14.01,2013-01-29 07:32:00,
2013-01-29 02:37:00,56.7,51.9,30.01,SSW,195,12.0,12.0,84,0.00,,,0.00,VWS V14.01,2013-01-29 07:37:00,
2013-01-29 02:42:00,56.8,52.0,30.01,SW,223,7.5,10.5,84,0.00,,,0.00,VWS V14.01,2013-01-29 07:42:00,
2013-01-29 02:47:00,56.8,52.0,30.02,WSW,255,13.5,21.0,84,0.00,,,0.00,VWS V14.01,2013-01-29 07:47:00,
2013-01-29 02:52:00,56.8,52.0,30.01,SW,230,12.0,12.0,84,0.00,,,0.00,VWS V14.01,2013-01-29 07:52:00,
2013-01-29 02:57:00,56.8,52.0,30.01,SW,236,7.5,10.5,84,0.00,,,0.00,VWS V14.01,2013-01-29 07:57:00,
2013-01-29 03:02:00,56.7,51.9,30.01,West,274,6.0,10.5,84,0.00,,,0.00,VWS V14.01,2013-01-29 08:02:00,
2013-01-29 03:07:00,56.7,51.9,30.01,SW,220,9.0,10.5,84,0.00,,,0.00,VWS V14.01,2013-01-29 08:07:00,
2013-01-29 03:12:00,56.6,51.8,30.01,WSW,238,6.0,10.5,84,0.00,,,0.00,VWS V14.01,2013-01-29 08:12:00,
2013-01-29 03:17:00,56.6,51.8,30.01,SSW,195,3.0,3.0,84,0.00,,,0.00,VWS V14.01,2013-01-29 08:17:00,
2013-01-29 03:22:00,56.4,51.6,30.01,WSW,238,6.0,9.0,84,0.00,,,0.00,VWS V14.01,2013-01-29 08:22:00,
2013-01-29 03:27:00,56.3,51.9,30.00,South,188,6.0,7.5,85,0.00,,,0.00,VWS V14.01,2013-01-29 08:27:00,
2013-01-29 03:32:00,56.3,51.9,30.00,SW,224,1.5,6.0,85,0.00,,,0.00,VWS V14.01,2013-01-29 08:32:00,
2013-01-29 03:37:00,56.2,51.8,30.00,SSE,168,6.0,9.0,85,0.00,,,0.00,VWS V14.01,2013-01-29 08:37:00,
2013-01-29 03:42:00,56.2,51.8,30.00,South,186,9.0,9.0,85,0.00,,,0.00,VWS V14.01,2013-01-29 08:42:00,
2013-01-29 03:47:00,56.1,51.7,30.00,SW,220,7.5,9.0,85,0.00,,,0.00,VWS V14.01,2013-01-29 08:47:00,
2013-01-29 03:52:00,56.0,51.6,29.99,WSW,237,6.0,6.0,85,0.00,,,0.00,VWS V14.01,2013-01-29 08:52:00,
2013-01-29 03:57:00,55.8,51.4,29.99,WSW,237,3.0,7.5,85,0.00,,,0.00,VWS V14.01,2013-01-29 08:57:00,
2013-01-29 04:02:00,55.8,51.4,29.99,WSW,243,7.5,7.5,85,0.00,,,0.00,VWS V14.01,2013-01-29 09:02:00,
2013-01-29 04:07:00,55.6,51.2,29.99,SW,233,3.0,6.0,85,0.00,,,0.00,VWS V14.01,2013-01-29 09:07:00,
2013-01-29 04:12:00,55.5,51.4,29.99,WSW,238,4.5,4.5,86,0.00,,,0.00,VWS V14.01,2013-01-29 09:12:00,
2013-01-29 04:17:00,55.5,51.4,29.99,WSW,238,1.5,1.5,86,0.00,,,0.00,VWS V14.01,2013-01-29 09:17:00,
2013-01-29 04:22:00,55.4,51.3,29.99,SW,216,4.5,6.0,86,0.00,,,0.00,VWS V14.01,2013-01-29 09:22:00,
2013-01-29 04:27:00,55.4,51.3,29.99,SSW,198,4.5,6.0,86,0.00,,,0.00,VWS V14.01,2013-01-29 09:27:00,
2013-01-29 04:32:00,55.5,51.4,29.98,South,186,3.0,7.5,86,0.00,,,0.00,VWS V14.01,2013-01-29 09:32:00,
2013-01-29 04:37:00,55.6,51.5,29.98,SW,214,1.5,3.0,86,0.00,,,0.00,VWS V14.01,2013-01-29 09:37:00,
2013-01-29 04:42:00,55.5,51.4,29.98,SSW,195,6.0,6.0,86,0.00,,,0.00,VWS V14.01,2013-01-29 09:42:00,
2013-01-29 04:47:00,55.6,51.5,29.98,SW,228,6.0,6.0,86,0.00,,,0.00,VWS V14.01,2013-01-29 09:47:00,
2013-01-29 04:52:00,55.7,51.6,29.98,WSW,250,4.5,4.5,86,0.00,,,0.00,VWS V14.01,2013-01-29 09:52:00,
2013-01-29 04:57:00,55.7,51.6,29.98,SSW,193,1.5,3.0,86,0.00,,,0.00,VWS V14.01,2013-01-29 09:57:00,
2013-01-29 05:02:00,55.6,51.5,29.98,SW,220,4.5,7.5,86,0.00,,,0.00,VWS V14.01,2013-01-29 10:02:00,
2013-01-29 05:07:00,55.5,51.4,29.97,SSW,200,4.5,4.5,86,0.00,,,0.00,VWS V14.01,2013-01-29 10:07:00,
2013-01-29 05:12:00,55.6,51.5,29.97,WSW,239,3.0,4.5,86,0.00,,,0.00,VWS V14.01,2013-01-29 10:12:00,
2013-01-29 05:17:00,55.5,51.4,29.97,SW,214,7.5,7.5,86,0.00,,,0.00,VWS V14.01,2013-01-29 10:17:00,
2013-01-29 05:22:00,55.6,51.5,29.97,SSW,213,6.0,7.5,86,0.00,,,0.00,VWS V14.01,2013-01-29 10:22:00,
2013-01-29 05:27:00,55.6,51.5,29.97,WSW,237,9.0,9.0,86,0.00,,,0.00,VWS V14.01,2013-01-29 10:27:00,
2013-01-29 05:32:00,55.4,51.3,29.96,SSW,206,4.5,4.5,86,0.00,,,0.00,VWS V14.01,2013-01-29 10:32:00,
2013-01-29 05:37:00,55.3,51.2,29.96,SW,220,12.0,12.0,86,0.00,,,0.00,VWS V14.01,2013-01-29 10:37:00,
2013-01-29 05:42:00,55.4,51.3,29.96,WSW,239,4.5,4.5,86,0.00,,,0.00,VWS V14.01,2013-01-29 10:42:00,
2013-01-29 05:47:00,55.5,51.4,29.96,SSW,206,13.5,13.5,86,0.00,,,0.00,VWS V14.01,2013-01-29 10:47:00,
2013-01-29 05:52:00,55.4,51.3,29.96,WSW,238,9.0,15.0,86,0.00,,,0.00,VWS V14.01,2013-01-29 10:52:00,
2013-01-29 05:57:00,55.4,51.3,29.96,WSW,240,9.0,9.0,86,0.00,,,0.00,VWS V14.01,2013-01-29 10:57:00,
2013-01-29 06:02:00,55.5,51.4,29.95,SW,224,6.0,7.5,86,0.00,,,0.00,VWS V14.01,2013-01-29 11:02:00,
2013-01-29 06:07:00,55.5,51.4,29.96,SE,141,4.5,6.0,86,0.00,,,0.00,VWS V14.01,2013-01-29 11:07:00,
2013-01-29 06:12:00,55.5,51.4,29.96,South,182,7.5,10.5,86,0.00,,,0.00,VWS V14.01,2013-01-29 11:12:00,
2013-01-29 06:17:00,55.4,51.3,29.95,SW,226,6.0,12.0,86,0.00,,,0.00,VWS V14.01,2013-01-29 11:17:00,
2013-01-29 06:22:00,55.3,51.2,29.96,WSW,248,4.5,4.5,86,0.00,,,0.00,VWS V14.01,2013-01-29 11:22:00,
2013-01-29 06:27:00,55.2,51.1,29.96,SSW,198,6.0,6.0,86,0.00,,,0.00,VWS V14.01,2013-01-29 11:27:00,
2013-01-29 06:32:00,55.1,51.0,29.96,SW,230,3.0,4.5,86,0.00,,,0.00,VWS V14.01,2013-01-29 11:32:00,
2013-01-29 06:37:00,55.1,51.0,29.96,SW,233,7.5,7.5,86,0.00,,,0.00,VWS V14.01,2013-01-29 11:37:00,
2013-01-29 06:42:00,55.0,51.2,29.96,SW,225,7.5,9.0,87,0.00,,,0.00,VWS V14.01,2013-01-29 11:42:00,
2013-01-29 06:47:00,54.9,51.2,29.96,SW,226,4.5,4.5,87,0.00,,,0.00,VWS V14.01,2013-01-29 11:47:00,
2013-01-29 06:52:00,55.0,51.2,29.96,WSW,254,4.5,7.5,87,0.00,,,0.00,VWS V14.01,2013-01-29 11:52:00,
2013-01-29 06:57:00,54.9,51.2,29.97,WSW,243,7.5,7.5,87,0.00,,,0.00,VWS V14.01,2013-01-29 11:57:00,
2013-01-29 07:02:00,55.0,51.2,29.97,SW,226,7.5,9.0,87,0.00,,,0.00,VWS V14.01,2013-01-29 12:02:00,
2013-01-29 07:07:00,55.1,51.3,29.97,WSW,237,6.0,7.5,87,0.00,,,0.00,VWS V14.01,2013-01-29 12:07:00,
2013-01-29 07:12:00,55.1,51.3,29.97,WSW,241,6.0,6.0,87,0.00,,,0.00,VWS V14.01,2013-01-29 12:12:00,
2013-01-29 07:17:00,55.1,51.3,29.97,SSW,207,4.5,6.0,87,0.00,,,0.00,VWS V14.01,2013-01-29 12:17:00,
2013-01-29 07:22:00,55.1,51.3,29.97,West,259,4.5,4.5,87,0.00,,,0.00,VWS V14.01,2013-01-29 12:22:00,
2013-01-29 07:27:00,55.1,51.3,29.97,SW,225,4.5,4.5,87,0.00,,,0.00,VWS V14.01,2013-01-29 12:27:00,
2013-01-29 07:32:00,55.1,51.3,29.97,SW,228,1.5,4.5,87,0.00,,,0.00,VWS V14.01,2013-01-29 12:32:00,
2013-01-29 07:37:00,55.1,51.7,29.97,SW,226,3.0,9.0,88,0.00,,,0.00,VWS V14.01,2013-01-29 12:37:00,
2013-01-29 07:42:00,55.1,51.7,29.97,SSW,203,3.0,4.5,88,0.00,,,0.00,VWS V14.01,2013-01-29 12:42:00,
2013-01-29 07:47:00,55.2,51.8,29.97,SW,228,4.5,7.5,88,0.00,,,0.00,VWS V14.01,2013-01-29 12:47:00,
2013-01-29 07:52:00,55.3,51.9,29.97,SSE,157,1.5,1.5,88,0.00,,,0.00,VWS V14.01,2013-01-29 12:52:00,
2013-01-29 07:57:00,55.3,51.9,29.97,SW,220,3.0,3.0,88,0.00,,,0.00,VWS V14.01,2013-01-29 12:57:00,
2013-01-29 08:02:00,55.5,52.1,29.97,West,262,6.0,9.0,88,0.00,,,0.00,VWS V14.01,2013-01-29 13:02:00,
2013-01-29 08:07:00,55.8,52.4,29.97,SSW,203,1.5,6.0,88,0.00,,,0.00,VWS V14.01,2013-01-29 13:07:00,
2013-01-29 08:12:00,56.0,52.2,29.97,SW,226,4.5,4.5,87,0.00,,,0.00,VWS V14.01,2013-01-29 13:12:00,
2013-01-29 08:17:00,56.2,52.4,29.97,SSW,198,3.0,6.0,87,0.00,,,0.00,VWS V14.01,2013-01-29 13:17:00,
2013-01-29 08:21:00,56.2,52.4,29.97,WSW,241,1.5,3.0,87,0.00,,,0.00,VWS V14.01,2013-01-29 13:21:00,
2013-01-29 08:26:00,56.4,52.6,29.96,SSW,207,4.5,7.5,87,0.00,,,0.00,VWS V14.01,2013-01-29 13:26:00,
2013-01-29 08:31:00,56.6,52.8,29.97,SW,231,4.5,6.0,87,0.00,,,0.00,VWS V14.01,2013-01-29 13:31:00,
2013-01-29 08:36:00,56.8,53.0,29.97,WSW,245,4.5,6.0,87,0.00,,,0.00,VWS V14.01,2013-01-29 13:36:00,
2013-01-29 08:41:00,57.0,52.9,29.96,WSW,257,3.0,10.5,86,0.00,,,0.00,VWS V14.01,2013-01-29 13:41:00,
2013-01-29 08:46:00,57.4,53.3,29.96,SW,236,4.5,9.0,86,0.00,,,0.00,VWS V14.01,2013-01-29 13:46:00,
2013-01-29 08:51:00,57.7,53.6,29.96,SW,223,6.0,9.0,86,0.00,,,0.00,VWS V14.01,2013-01-29 13:51:00,
2013-01-29 08:56:00,57.8,53.3,29.96,SSW,212,4.5,7.5,85,0.00,,,0.00,VWS V14.01,2013-01-29 13:56:00,
2013-01-29 09:01:00,58.3,53.8,30.02,SSW,209,9.0,9.0,85,0.00,,,0.00,VWS V14.01,2013-01-29 14:01:00,
2013-01-29 09:06:00,58.6,53.8,30.02,SSW,200,4.5,7.5,84,0.00,,,0.00,VWS V14.01,2013-01-29 14:06:00,
2013-01-29 09:11:00,59.0,54.2,30.02,WSW,239,9.0,12.0,84,0.00,,,0.00,VWS V14.01,2013-01-29 14:11:00,
2013-01-29 09:16:00,59.3,54.5,30.02,SW,217,6.0,7.5,84,0.00,,,0.00,VWS V14.01,2013-01-29 14:16:00,
2013-01-29 09:21:00,59.6,54.4,30.01,SW,220,10.5,15.0,83,0.00,,,0.00,VWS V14.01,2013-01-29 14:21:00,
2013-01-29 09:26:00,59.7,54.2,30.02,SSW,206,18.0,19.5,82,0.00,,,0.00,VWS V14.01,2013-01-29 14:26:00,
2013-01-29 09:31:00,59.8,54.3,30.01,SW,236,18.0,18.0,82,0.00,,,0.00,VWS V14.01,2013-01-29 14:31:00,
2013-01-29 09:36:00,59.9,54.4,30.02,SSW,203,10.5,12.0,82,0.00,,,0.00,VWS V14.01,2013-01-29 14:36:00,
2013-01-29 09:41:00,60.1,54.6,30.02,SW,228,25.5,25.5,82,0.00,,,0.00,VWS V14.01,2013-01-29 14:41:00,
2013-01-29 09:46:00,60.2,54.7,30.02,SSW,209,15.0,16.5,82,0.00,,,0.00,VWS V14.01,2013-01-29 14:46:00,
2013-01-29 09:51:00,60.4,54.8,30.02,WSW,243,22.5,30.0,82,0.00,,,0.00,VWS V14.01,2013-01-29 14:51:00,
2013-01-29 09:56:00,60.7,54.8,30.02,SSW,210,24.0,24.0,81,0.00,,,0.00,VWS V14.01,2013-01-29 14:56:00,
2013-01-29 10:01:00,60.9,55.0,30.03,West,266,18.0,18.0,81,0.00,,,0.00,VWS V14.01,2013-01-29 15:01:00,
2013-01-29 10:06:00,61.0,55.1,30.02,SSW,212,19.5,22.5,81,0.00,,,0.00,VWS V14.01,2013-01-29 15:06:00,
2013-01-29 10:11:00,61.4,55.5,30.03,WSW,251,18.0,28.5,81,0.00,,,0.00,VWS V14.01,2013-01-29 15:11:00,
2013-01-29 10:16:00,61.5,55.2,30.03,West,269,6.0,12.0,80,0.00,,,0.00,VWS V14.01,2013-01-29 15:16:00,
2013-01-29 10:21:00,61.4,55.1,30.02,SW,220,16.5,21.0,80,0.00,,,0.00,VWS V14.01,2013-01-29 15:21:00,
2013-01-29 10:26:00,61.3,55.0,30.02,SW,224,19.5,27.0,80,0.00,,,0.00,VWS V14.01,2013-01-29 15:26:00,
2013-01-29 10:31:00,61.2,55.3,30.02,SSW,195,16.5,16.5,81,0.00,,,0.00,VWS V14.01,2013-01-29 15:31:00,
2013-01-29 10:36:00,61.3,55.4,30.02,WSW,244,27.0,27.0,81,0.00,,,0.00,VWS V14.01,2013-01-29 15:36:00,
2013-01-29 10:41:00,61.3,55.4,30.02,SW,228,25.5,25.5,81,0.00,,,0.00,VWS V14.01,2013-01-29 15:41:00,
2013-01-29 10:46:00,61.3,55.4,30.02,West,271,13.5,16.5,81,0.00,,,0.00,VWS V14.01,2013-01-29 15:46:00,
2013-01-29 10:51:00,61.8,55.9,30.01,SSW,193,9.0,18.0,81,0.00,,,0.00,VWS V14.01,2013-01-29 15:51:00,
2013-01-29 10:56:00,62.2,55.9,30.01,West,263,4.5,6.0,80,0.00,,,0.00,VWS V14.01,2013-01-29 15:56:00,
2013-01-29 11:01:00,62.4,55.7,30.00,West,264,10.5,16.5,79,0.00,,,0.00,VWS V14.01,2013-01-29 16:01:00,
2013-01-29 11:06:00,62.5,55.8,30.00,WSW,237,9.0,18.0,79,0.00,,,0.00,VWS V14.01,2013-01-29 16:06:00,
2013-01-29 11:11:00,62.9,56.2,30.00,WSW,238,6.0,16.5,79,0.00,,,0.00,VWS V14.01,2013-01-29 16:11:00,
2013-01-29 11:16:00,63.1,56.0,30.00,SW,236,18.0,30.0,78,0.00,,,0.00,VWS V14.01,2013-01-29 16:16:00,
2013-01-29 11:21:00,62.8,55.7,30.00,SW,217,16.5,18.0,78,0.00,,,0.00,VWS V14.01,2013-01-29 16:21:00,
2013-01-29 11:26:00,62.6,55.5,29.99,SSW,209,19.5,21.0,78,0.00,,,0.00,VWS V14.01,2013-01-29 16:26:00,
2013-01-29 11:31:00,63.0,56.3,29.99,SE,143,9.0,9.0,79,0.00,,,0.00,VWS V14.01,2013-01-29 16:31:00,
2013-01-29 11:36:00,63.4,56.3,29.98,South,181,15.0,16.5,78,0.00,,,0.00,VWS V14.01,2013-01-29 16:36:00,
2013-01-29 11:41:00,63.6,56.5,29.98,WSW,238,9.0,9.0,78,0.00,,,0.00,VWS V14.01,2013-01-29 16:41:00,
2013-01-29 11:46:00,63.4,56.3,29.98,SW,220,19.5,19.5,78,0.00,,,0.00,VWS V14.01,2013-01-29 16:46:00,
2013-01-29 11:51:00,63.5,56.4,29.98,WSW,254,16.5,18.0,78,0.00,,,0.00,VWS V14.01,2013-01-29 16:51:00,
2013-01-29 11:56:00,63.1,56.0,29.98,SSW,202,10.5,21.0,78,0.00,,,0.00,VWS V14.01,2013-01-29 16:56:00,
2013-01-29 12:01:00,62.9,56.2,29.98,SW,214,13.5,16.5,79,0.00,,,0.00,VWS V14.01,2013-01-29 17:01:00,
2013-01-29 12:06:00,63.0,56.7,29.98,SW,216,10.5,10.5,80,0.00,,,0.00,VWS V14.01,2013-01-29 17:06:00,
2013-01-29 12:11:00,63.1,56.8,29.98,North,359,6.0,13.5,80,0.00,,,0.00,VWS V14.01,2013-01-29 17:11:00,
2013-01-29 12:16:00,63.2,56.5,29.97,SW,227,13.5,13.5,79,0.00,,,0.00,VWS V14.01,2013-01-29 17:16:00,
2013-01-29 12:21:00,63.4,56.7,29.97,SW,236,22.5,22.5,79,0.00,,,0.00,VWS V14.01,2013-01-29 17:21:00,
2013-01-29 12:26:00,63.5,57.2,29.96,WSW,238,12.0,13.5,80,0.00,,,0.00,VWS V14.01,2013-01-29 17:26:00,
2013-01-29 12:31:00,63.8,57.1,29.96,SSW,209,22.5,22.5,79,0.00,,,0.00,VWS V14.01,2013-01-29 17:31:00,
2013-01-29 12:36:00,64.0,57.3,29.95,West,273,13.5,27.0,79,0.00,,,0.00,VWS V14.01,2013-01-29 17:36:00,
2013-01-29 12:41:00,63.9,56.8,29.95,SSW,209,19.5,19.5,78,0.00,,,0.00,VWS V14.01,2013-01-29 17:41:00,
2013-01-29 12:46:00,63.8,57.1,29.95,SSW,200,13.5,15.0,79,0.00,,,0.00,VWS V14.01,2013-01-29 17:46:00,
2013-01-29 12:51:00,63.8,57.1,29.95,West,275,15.0,16.5,79,0.00,,,0.00,VWS V14.01,2013-01-29 17:51:00,
2013-01-29 12:56:00,63.9,56.8,29.95,WSW,240,30.0,30.0,78,0.00,,,0.00,VWS V14.01,2013-01-29 17:56:00,
2013-01-29 13:01:00,63.8,57.1,29.95,West,278,9.0,10.5,79,0.00,,,0.00,VWS V14.01,2013-01-29 18:01:00,
2013-01-29 13:06:00,63.7,57.0,29.95,South,174,10.5,10.5,79,0.00,,,0.00,VWS V14.01,2013-01-29 18:06:00,
2013-01-29 13:11:00,63.8,56.7,29.95,West,269,13.5,19.5,78,0.00,,,0.00,VWS V14.01,2013-01-29 18:11:00,
2013-01-29 13:16:00,63.6,56.5,29.94,SW,220,22.5,22.5,78,0.00,,,0.00,VWS V14.01,2013-01-29 18:16:00,
2013-01-29 13:21:00,63.6,56.5,29.94,SW,232,24.0,24.0,78,0.00,,,0.00,VWS V14.01,2013-01-29 18:21:00,
2013-01-29 13:26:00,63.6,56.5,29.94,SW,229,24.0,24.0,78,0.00,,,0.00,VWS V14.01,2013-01-29 18:26:00,
2013-01-29 13:31:00,63.7,56.6,29.94,WSW,243,9.0,19.5,78,0.00,,,0.00,VWS V14.01,2013-01-29 18:31:00,
2013-01-29 13:36:00,63.7,56.6,29.93,SSW,213,21.0,28.5,78,0.00,,,0.00,VWS V14.01,2013-01-29 18:36:00,
2013-01-29 13:41:00,63.9,56.8,29.93,SW,231,15.0,21.0,78,0.00,,,0.00,VWS V14.01,2013-01-29 18:41:00,
2013-01-29 13:46:00,64.0,56.9,29.92,WSW,243,7.5,16.5,78,0.00,,,0.00,VWS V14.01,2013-01-29 18:46:00,
2013-01-29 13:51:00,64.1,57.0,29.92,WSW,240,18.0,24.0,78,0.00,,,0.00,VWS V14.01,2013-01-29 18:51:00,
2013-01-29 13:56:00,64.3,56.8,29.91,SSW,196,18.0,19.5,77,0.00,,,0.00,VWS V14.01,2013-01-29 18:56:00,
2013-01-29 14:01:00,64.6,57.1,29.91,SSW,193,18.0,22.5,77,0.00,,,0.00,VWS V14.01,2013-01-29 19:01:00,
2013-01-29 14:06:00,64.8,57.3,29.90,SW,223,9.0,21.0,77,0.00,,,0.00,VWS V14.01,2013-01-29 19:06:00,
2013-01-29 14:11:00,65.0,57.5,29.90,SW,236,9.0,16.5,77,0.00,,,0.00,VWS V14.01,2013-01-29 19:11:00,
2013-01-29 14:16:00,65.3,57.4,29.90,WSW,240,27.0,27.0,76,0.00,,,0.00,VWS V14.01,2013-01-29 19:16:00,
2013-01-29 14:21:00,65.4,57.5,29.90,WSW,245,12.0,27.0,76,0.00,,,0.00,VWS V14.01,2013-01-29 19:21:00,
2013-01-29 14:26:00,65.3,57.4,29.90,WSW,251,6.0,13.5,76,0.00,,,0.00,VWS V14.01,2013-01-29 19:26:00,
2013-01-29 14:31:00,65.5,57.6,29.89,SW,215,9.0,13.5,76,0.00,,,0.00,VWS V14.01,2013-01-29 19:31:00,
2013-01-29 14:35:00,65.9,58.0,29.88,SW,217,7.5,13.5,76,0.00,,,0.00,VWS V14.01,2013-01-29 19:35:00,
2013-01-29 14:40:00,66.4,58.1,29.88,SSW,200,4.5,16.5,75,0.00,,,0.00,VWS V14.01,2013-01-29 19:40:00,
2013-01-29 14:45:00,66.3,58.0,29.88,SSW,209,10.5,16.5,75,0.00,,,0.00,VWS V14.01,2013-01-29 19:45:00,
2013-01-29 14:50:00,66.4,58.1,29.87,SW,231,13.5,21.0,75,0.00,,,0.00,VWS V14.01,2013-01-29 19:50:00,
2013-01-29 14:55:00,66.7,58.4,29.87,SSE,153,3.0,9.0,75,0.00,,,0.00,VWS V14.01,2013-01-29 19:55:00,
2013-01-29 14:58:00,67.0,58.7,29.87,WSW,246,10.5,15.0,75,0.00,,,0.00,VWS V14.01,2013-01-29 19:58:00,
2013-01-29 15:03:00,67.2,58.5,29.86,WSW,237,9.0,9.0,74,0.00,,,0.00,VWS V14.01,2013-01-29 20:03:00,
2013-01-29 15:08:00,67.2,58.5,29.86,SW,234,16.5,19.5,74,0.00,,,0.00,VWS V14.01,2013-01-29 20:08:00,
2013-01-29 15:13:00,67.0,58.7,29.85,South,189,12.0,15.0,75,0.00,,,0.00,VWS V14.01,2013-01-29 20:13:00,
2013-01-29 15:18:00,66.9,58.6,29.85,West,259,6.0,9.0,75,0.00,,,0.00,VWS V14.01,2013-01-29 20:18:00,
2013-01-29 15:23:00,66.9,59.0,29.85,South,179,7.5,16.5,76,0.00,,,0.00,VWS V14.01,2013-01-29 20:23:00,
2013-01-29 15:28:00,67.1,59.1,29.84,SW,215,16.5,16.5,76,0.00,,,0.00,VWS V14.01,2013-01-29 20:28:00,
2013-01-29 15:33:00,67.4,59.0,29.84,SSW,206,10.5,19.5,75,0.00,,,0.00,VWS V14.01,2013-01-29 20:33:00,
2013-01-29 15:38:00,67.7,59.3,29.84,SW,218,10.5,10.5,75,0.00,,,0.00,VWS V14.01,2013-01-29 20:38:00,
2013-01-29 15:43:00,67.9,59.5,29.83,SW,222,7.5,7.5,75,0.00,,,0.00,VWS V14.01,2013-01-29 20:43:00,
2013-01-29 15:48:00,67.9,59.1,29.83,SSW,200,9.0,9.0,74,0.00,,,0.00,VWS V14.01,2013-01-29 20:48:00,
2013-01-29 15:53:00,68.0,59.2,29.83,WSW,252,4.5,6.0,74,0.00,,,0.00,VWS V14.01,2013-01-29 20:53:00,
2013-01-29 15:58:00,68.0,59.2,29.83,SE,133,6.0,6.0,74,0.00,,,0.00,VWS V14.01,2013-01-29 20:58:00,
2013-01-29 16:03:00,68.0,59.2,29.83,SSW,209,13.5,16.5,74,0.00,,,0.00,VWS V14.01,2013-01-29 21:03:00,
2013-01-29 16:08:00,68.1,59.3,29.83,WSW,254,3.0,4.5,74,0.00,,,0.00,VWS V14.01,2013-01-29 21:08:00,
2013-01-29 16:13:00,68.4,59.2,29.82,WSW,247,16.5,16.5,72,0.00,,,0.00,VWS V14.01,2013-01-29 21:13:00,
2013-01-29 16:18:00,68.5,59.3,29.82,SSW,200,10.5,15.0,72,0.00,,,0.00,VWS V14.01,2013-01-29 21:18:00,
2013-01-29 16:23:00,68.3,59.1,29.82,West,259,3.0,10.5,72,0.00,,,0.00,VWS V14.01,2013-01-29 21:23:00,
2013-01-29 16:28:00,68.2,59.4,29.82,South,181,6.0,15.0,74,0.00,,,0.00,VWS V14.01,2013-01-29 21:28:00,
2013-01-29 16:33:00,68.0,59.2,29.82,SSW,203,10.5,18.0,74,0.00,,,0.00,VWS V14.01,2013-01-29 21:33:00,
2013-01-29 16:38:00,68.0,59.2,29.81,SSE,155,9.0,12.0,74,0.00,,,0.00,VWS V14.01,2013-01-29 21:38:00,
2013-01-29 16:43:00,67.9,59.5,29.81,SW,226,7.5,10.5,75,0.00,,,0.00,VWS V14.01,2013-01-29 21:43:00,
2013-01-29 16:48:00,67.8,59.4,29.81,WSW,254,7.5,7.5,75,0.00,,,0.00,VWS V14.01,2013-01-29 21:48:00,
2013-01-29 16:53:00,67.8,59.4,29.80,SSE,154,7.5,9.0,75,0.00,,,0.00,VWS V14.01,2013-01-29 21:53:00,
2013-01-29 16:58:00,67.6,59.2,29.80,ESE,103,7.5,7.5,75,0.00,,,0.00,VWS V14.01,2013-01-29 21:58:00,
2013-01-29 17:03:00,67.6,59.2,29.80,SE,128,4.5,9.0,75,0.00,,,0.00,VWS V14.01,2013-01-29 22:03:00,
2013-01-29 17:08:00,67.5,59.5,29.80,SSW,195,16.5,16.5,76,0.00,,,0.00,VWS V14.01,2013-01-29 22:08:00,
2013-01-29 17:13:00,67.5,59.5,29.80,SSW,195,13.5,22.5,76,0.00,,,0.00,VWS V14.01,2013-01-29 22:13:00,
2013-01-29 17:18:00,67.4,59.4,29.80,SSW,210,4.5,15.0,76,0.00,,,0.00,VWS V14.01,2013-01-29 22:18:00,
2013-01-29 17:23:00,67.3,59.3,29.80,SE,141,10.5,10.5,76,0.00,,,0.00,VWS V14.01,2013-01-29 22:23:00,
2013-01-29 17:28:00,67.1,59.1,29.80,South,179,6.0,9.0,76,0.00,,,0.00,VWS V14.01,2013-01-29 22:28:00,
2013-01-29 17:33:00,67.0,59.0,29.81,WSW,241,4.5,13.5,76,0.00,,,0.00,VWS V14.01,2013-01-29 22:33:00,
2013-01-29 17:38:00,66.9,59.3,29.81,SW,231,6.0,12.0,77,0.00,,,0.00,VWS V14.01,2013-01-29 22:38:00,
2013-01-29 17:43:00,66.8,59.2,29.81,SW,217,4.5,16.5,77,0.00,,,0.00,VWS V14.01,2013-01-29 22:43:00,
2013-01-29 17:48:00,66.6,59.0,29.81,SSW,195,3.0,3.0,77,0.00,,,0.00,VWS V14.01,2013-01-29 22:48:00,
2013-01-29 17:53:00,66.4,58.8,29.81,SSW,202,3.0,7.5,77,0.00,,,0.00,VWS V14.01,2013-01-29 22:53:00,
2013-01-29 17:58:00,66.1,58.9,29.80,SE,137,1.5,6.0,78,0.00,,,0.00,VWS V14.01,2013-01-29 22:58:00,
2013-01-29 18:03:00,65.9,58.8,29.80,SSW,200,3.0,4.5,78,0.00,,,0.00,VWS V14.01,2013-01-29 23:03:00,
2013-01-29 18:08:00,65.6,58.8,29.80,South,182,3.0,4.5,79,0.00,,,0.00,VWS V14.01,2013-01-29 23:08:00,
2013-01-29 18:13:00,65.4,58.6,29.80,South,189,6.0,6.0,79,0.00,,,0.00,VWS V14.01,2013-01-29 23:13:00,
2013-01-29 18:18:00,65.3,58.5,29.80,South,189,3.0,3.0,79,0.00,,,0.00,VWS V14.01,2013-01-29 23:18:00,
2013-01-29 18:23:00,65.2,58.4,29.80,SSW,200,3.0,6.0,79,0.00,,,0.00,VWS V14.01,2013-01-29 23:23:00,
2013-01-29 18:28:00,65.1,58.3,29.80,SE,130,4.5,4.5,79,0.00,,,0.00,VWS V14.01,2013-01-29 23:28:00,
2013-01-29 18:33:00,65.0,58.2,29.80,ESE,122,1.5,3.0,79,0.00,,,0.00,VWS V14.01,2013-01-29 23:33:00,
2013-01-29 18:38:00,64.8,58.0,29.80,SE,124,3.0,3.0,79,0.00,,,0.00,VWS V14.01,2013-01-29 23:38:00,
2013-01-29 18:43:00,64.8,58.0,29.80,SSE,161,3.0,4.5,79,0.00,,,0.00,VWS V14.01,2013-01-29 23:43:00,
2013-01-29 18:48:00,64.8,58.0,29.80,SE,143,4.5,4.5,79,0.00,,,0.00,VWS V14.01,2013-01-29 23:48:00,
2013-01-29 18:53:00,64.8,58.0,29.79,SSW,203,4.5,6.0,79,0.00,,,0.00,VWS V14.01,2013-01-29 23:53:00,
2013-01-29 18:58:00,64.8,58.0,29.80,West,264,6.0,9.0,79,0.00,,,0.00,VWS V14.01,2013-01-29 23:58:00,
2013-01-29 19:03:00,64.9,58.2,29.80,SW,225,3.0,9.0,79,0.00,,,0.00,VWS V14.01,2013-01-30 00:03:00,
2013-01-29 19:08:00,64.9,58.5,29.80,South,171,7.5,12.0,80,0.00,,,0.00,VWS V14.01,2013-01-30 00:08:00,
2013-01-29 19:13:00,65.0,58.6,29.79,SSW,203,7.5,16.5,80,0.00,,,0.00,VWS V14.01,2013-01-30 00:13:00,
2013-01-29 19:17:00,65.0,58.6,29.80,SW,214,9.0,16.5,80,0.00,,,0.00,VWS V14.01,2013-01-30 00:17:00,
2013-01-29 19:22:00,65.0,58.6,29.80,SE,130,4.5,12.0,80,0.00,,,0.00,VWS V14.01,2013-01-30 00:22:00,
2013-01-29 19:27:00,64.9,58.5,29.80,SE,146,7.5,7.5,80,0.00,,,0.00,VWS V14.01,2013-01-30 00:27:00,
2013-01-29 19:32:00,64.8,58.4,29.79,SSW,192,12.0,12.0,80,0.00,,,0.00,VWS V14.01,2013-01-30 00:32:00,
2013-01-29 19:37:00,64.8,58.4,29.78,SSW,207,4.5,4.5,80,0.00,,,0.00,VWS V14.01,2013-01-30 00:37:00,
2013-01-29 19:42:00,64.7,58.3,29.78,South,179,6.0,9.0,80,0.00,,,0.00,VWS V14.01,2013-01-30 00:42:00,
2013-01-29 19:47:00,64.6,58.2,29.77,East,98,13.5,13.5,80,0.00,,,0.00,VWS V14.01,2013-01-30 00:47:00,
2013-01-29 19:52:00,64.5,58.5,29.77,SE,128,6.0,9.0,81,0.00,,,0.00,VWS V14.01,2013-01-30 00:52:00,
2013-01-29 19:57:00,64.6,58.6,29.77,South,172,10.5,10.5,81,0.00,,,0.00,VWS V14.01,2013-01-30 00:57:00,
2013-01-29 20:02:00,64.7,58.7,29.76,SSE,164,9.0,13.5,81,0.00,,,0.00,VWS V14.01,2013-01-30 01:02:00,
2013-01-29 20:07:00,64.8,58.8,29.76,SSE,148,7.5,21.0,81,0.00,,,0.00,VWS V14.01,2013-01-30 01:07:00,
2013-01-29 20:12:00,65.2,59.2,29.76,SSW,209,12.0,18.0,81,0.00,,,0.00,VWS V14.01,2013-01-30 01:12:00,
2013-01-29 20:17:00,65.4,59.0,29.76,SSW,209,15.0,18.0,80,0.00,,,0.00,VWS V14.01,2013-01-30 01:17:00,
2013-01-29 20:22:00,65.6,59.2,29.76,SSW,196,13.5,18.0,80,0.00,,,0.00,VWS V14.01,2013-01-30 01:22:00,
2013-01-29 20:27:00,65.7,59.3,29.76,SW,233,15.0,15.0,80,0.00,,,0.00,VWS V14.01,2013-01-30 01:27:00,
2013-01-29 20:32:00,65.6,59.2,29.76,East,98,3.0,12.0,80,0.00,,,0.00,VWS V14.01,2013-01-30 01:32:00,
2013-01-29 20:37:00,65.7,59.3,29.76,South,176,10.5,13.5,80,0.00,,,0.00,VWS V14.01,2013-01-30 01:37:00,
2013-01-29 20:42:00,65.6,59.2,29.76,SSE,162,7.5,16.5,80,0.00,,,0.00,VWS V14.01,2013-01-30 01:42:00,
2013-01-29 20:47:00,65.5,59.1,29.75,SSW,202,13.5,18.0,80,0.00,,,0.00,VWS V14.01,2013-01-30 01:47:00,
2013-01-29 20:52:00,65.5,59.5,29.75,South,186,4.5,10.5,81,0.00,,,0.00,VWS V14.01,2013-01-30 01:52:00,
2013-01-29 20:57:00,65.4,59.4,29.75,SSW,206,13.5,13.5,81,0.00,,,0.00,VWS V14.01,2013-01-30 01:57:00,
2013-01-29 21:02:00,65.6,59.6,29.75,SSE,165,16.5,19.5,81,0.00,,,0.00,VWS V14.01,2013-01-30 02:02:00,
2013-01-29 21:07:00,65.5,59.1,29.75,South,188,6.0,13.5,80,0.00,,,0.00,VWS V14.01,2013-01-30 02:07:00,
2013-01-29 21:12:00,65.5,59.5,29.75,SSW,209,6.0,12.0,81,0.00,,,0.00,VWS V14.01,2013-01-30 02:12:00,
2013-01-29 21:17:00,65.5,59.5,29.74,SW,220,6.0,19.5,81,0.00,,,0.00,VWS V14.01,2013-01-30 02:17:00,
2013-01-29 21:22:00,65.5,59.5,29.74,South,181,7.5,10.5,81,0.00,,,0.00,VWS V14.01,2013-01-30 02:22:00,
2013-01-29 21:27:00,65.6,59.6,29.73,SW,226,9.0,9.0,81,0.00,,,0.00,VWS V14.01,2013-01-30 02:27:00,
2013-01-29 21:32:00,65.5,59.5,29.73,SSW,206,16.5,16.5,81,0.00,,,0.00,VWS V14.01,2013-01-30 02:32:00,
2013-01-29 21:37:00,65.5,59.5,29.73,SW,216,27.0,27.0,81,0.00,,,0.00,VWS V14.01,2013-01-30 02:37:00,
2013-01-29 21:42:00,65.6,59.6,29.72,SSW,193,10.5,13.5,81,0.00,,,0.00,VWS V14.01,2013-01-30 02:42:00,
2013-01-29 21:47:00,65.6,59.6,29.72,WSW,250,13.5,19.5,81,0.00,,,0.00,VWS V14.01,2013-01-30 02:47:00,
2013-01-29 21:52:00,65.5,59.5,29.73,East,101,9.0,18.0,81,0.00,,,0.00,VWS V14.01,2013-01-30 02:52:00,
2013-01-29 21:57:00,65.4,59.4,29.72,SW,223,6.0,10.5,81,0.00,,,0.00,VWS V14.01,2013-01-30 02:57:00,
2013-01-29 22:02:00,65.4,59.4,29.72,SE,138,10.5,13.5,81,0.00,,,0.00,VWS V14.01,2013-01-30 03:02:00,
2013-01-29 22:07:00,65.3,59.3,29.72,SSW,196,7.5,15.0,81,0.00,,,0.00,VWS V14.01,2013-01-30 03:07:00,
2013-01-29 22:12:00,65.2,59.2,29.72,SW,214,6.0,6.0,81,0.00,,,0.00,VWS V14.01,2013-01-30 03:12:00,
2013-01-29 22:17:00,65.1,59.1,29.71,South,185,9.0,12.0,81,0.00,,,0.00,VWS V14.01,2013-01-30 03:17:00,
2013-01-29 22:22:00,65.0,59.0,29.71,SSW,210,19.5,19.5,81,0.00,,,0.00,VWS V14.01,2013-01-30 03:22:00,
2013-01-29 22:27:00,64.8,58.8,29.70,SSW,213,13.5,13.5,81,0.00,,,0.00,VWS V14.01,2013-01-30 03:27:00,
2013-01-29 22:32:00,64.7,59.0,29.70,SE,144,4.5,4.5,82,0.00,,,0.00,VWS V14.01,2013-01-30 03:32:00,
2013-01-29 22:37:00,64.5,58.9,29.70,SE,137,4.5,10.5,82,0.00,,,0.00,VWS V14.01,2013-01-30 03:37:00,
2013-01-29 22:42:00,64.4,58.8,29.69,SSE,159,9.0,9.0,82,0.00,,,0.00,VWS V14.01,2013-01-30 03:42:00,
2013-01-29 22:47:00,64.4,58.8,29.68,SSW,213,6.0,12.0,82,0.00,,,0.00,VWS V14.01,2013-01-30 03:47:00,
2013-01-29 22:52:00,64.2,58.6,29.68,WSW,248,3.0,4.5,82,0.00,,,0.00,VWS V14.01,2013-01-30 03:52:00,
2013-01-29 22:57:00,64.1,58.5,29.68,SSE,160,15.0,16.5,82,0.00,,,0.00,VWS V14.01,2013-01-30 03:57:00,
2013-01-29 23:02:00,64.0,58.4,29.68,ESE,113,4.5,9.0,82,0.00,,,0.00,VWS V14.01,2013-01-30 04:02:00,
2013-01-29 23:07:00,63.9,58.3,29.67,SE,133,9.0,9.0,82,0.00,,,0.00,VWS V14.01,2013-01-30 04:07:00,
2013-01-29 23:12:00,63.8,58.2,29.67,South,172,3.0,4.5,82,0.00,,,0.00,VWS V14.01,2013-01-30 04:12:00,
2013-01-29 23:17:00,63.8,58.2,29.66,South,188,3.0,6.0,82,0.00,,,0.00,VWS V14.01,2013-01-30 04:17:00,
2013-01-29 23:22:00,63.8,58.2,29.66,SSW,198,7.5,18.0,82,0.00,,,0.00,VWS V14.01,2013-01-30 04:22:00,
2013-01-29 23:27:00,63.8,58.2,29.65,ESE,116,13.5,13.5,82,0.00,,,0.00,VWS V14.01,2013-01-30 04:27:00,
2013-01-29 23:32:00,63.8,58.2,29.65,SSW,198,10.5,12.0,82,0.00,,,0.00,VWS V14.01,2013-01-30 04:32:00,
2013-01-29 23:37:00,63.8,58.2,29.64,South,186,9.0,16.5,82,0.00,,,0.00,VWS V14.01,2013-01-30 04:37:00,
2013-01-29 23:42:00,63.8,58.2,29.64,SW,220,6.0,15.0,82,0.00,,,0.00,VWS V14.01,2013-01-30 04:42:00,
2013-01-29 23:47:00,63.8,58.2,29.64,South,189,4.5,4.5,82,0.00,,,0.00,VWS V14.01,2013-01-30 04:47:00,
2013-01-29 23:52:00,63.8,58.2,29.63,South,181,9.0,9.0,82,0.00,,,0.00,VWS V14.01,2013-01-30 04:52:00,
2013-01-29 23:57:00,63.8,58.2,29.63,SSE,162,12.0,12.0,82,0.00,,,0.00,VWS V14.01,2013-01-30 04:57:00,